createdAt,value
2017-11-16T00:02:18.103Z,82.09
2017-11-16T00:04:52.641Z,81.93
2017-11-16T00:07:27.308Z,81.89
2017-11-16T00:10:01.767Z,81.69
2017-11-16T00:12:36.230Z,81.96
2017-11-16T00:15:10.640Z,81.68
2017-11-16T00:17:45.160Z,81.58
2017-11-16T00:20:19.568Z,82.37
2017-11-16T00:22:54.112Z,82.80
2017-11-16T00:25:28.491Z,83.58
2017-11-16T00:28:03.021Z,83.77
2017-11-16T00:30:37.511Z,83.77
2017-11-16T00:33:12.170Z,83.87
2017-11-16T00:35:46.611Z,83.92
2017-11-16T00:38:21.058Z,83.11
2017-11-16T00:40:56.081Z,82.81
2017-11-16T00:43:30.673Z,82.73
2017-11-16T00:46:05.100Z,82.55
2017-11-16T00:48:39.597Z,82.32
2017-11-16T00:51:14.027Z,82.44
2017-11-16T00:53:48.391Z,82.26
2017-11-16T00:56:22.883Z,82.12
2017-11-16T00:58:57.437Z,82.95
2017-11-16T01:01:32.079Z,82.98
2017-11-16T01:04:06.477Z,83.61
2017-11-16T01:06:40.876Z,83.83
2017-11-16T01:09:15.010Z,84.43
2017-11-16T01:11:49.556Z,83.34
2017-11-16T01:14:24.107Z,83.68
2017-11-16T01:16:59.432Z,81.62
2017-11-16T01:19:34.087Z,80.72
2017-11-16T01:22:08.464Z,81.22
2017-11-16T01:24:43.018Z,81.26
2017-11-16T01:27:17.382Z,82.50
2017-11-16T01:29:51.901Z,83.37
2017-11-16T01:32:26.352Z,84.02
2017-11-16T01:35:00.708Z,83.94
2017-11-16T01:37:36.399Z,85.02
2017-11-16T01:40:15.371Z,85.09
2017-11-16T01:42:49.728Z,83.38
2017-11-16T01:45:24.171Z,84.04
2017-11-16T01:47:58.691Z,83.48
2017-11-16T01:50:33.070Z,83.63
2017-11-16T01:53:08.431Z,82.58
2017-11-16T01:55:43.000Z,81.67
2017-11-16T01:58:17.543Z,80.83
2017-11-16T02:00:51.971Z,80.93
2017-11-16T02:03:26.517Z,81.64
2017-11-16T02:06:01.033Z,82.35
2017-11-16T02:08:35.653Z,82.53
2017-11-16T02:11:10.232Z,83.11
2017-11-16T02:13:44.621Z,83.73
2017-11-16T02:16:19.391Z,84.47
2017-11-16T02:18:53.994Z,84.61
2017-11-16T02:21:28.103Z,84.80
2017-11-16T02:24:02.300Z,84.90
2017-11-16T02:26:36.408Z,84.72
2017-11-16T02:29:10.662Z,84.42
2017-11-16T02:31:48.431Z,84.85
2017-11-16T02:34:22.507Z,84.99
2017-11-16T02:36:56.529Z,83.98
2017-11-16T02:39:30.611Z,82.51
2017-11-16T02:42:04.466Z,82.17
2017-11-16T02:44:38.919Z,82.63
2017-11-16T02:47:13.162Z,83.63
2017-11-16T02:49:47.378Z,84.04
2017-11-16T02:52:22.245Z,84.13
2017-11-16T02:54:56.783Z,84.31
2017-11-16T02:57:30.891Z,84.46
2017-11-16T03:00:13.819Z,84.79
2017-11-16T03:02:48.332Z,84.21
2017-11-16T03:05:22.814Z,84.32
2017-11-16T03:07:57.379Z,82.81
2017-11-16T03:10:31.820Z,82.45
2017-11-16T03:13:06.206Z,81.54
2017-11-16T03:15:40.617Z,81.12
2017-11-16T03:18:15.103Z,81.23
2017-11-16T03:20:49.460Z,81.12
2017-11-16T03:23:23.981Z,81.06
2017-11-16T03:25:58.050Z,81.28
2017-11-16T03:28:32.222Z,81.37
2017-11-16T03:31:06.659Z,81.03
2017-11-16T03:33:41.189Z,80.75
2017-11-16T03:36:16.336Z,81.44
2017-11-16T03:38:50.915Z,81.76
2017-11-16T03:41:25.364Z,81.03
2017-11-16T03:43:59.875Z,80.93
2017-11-16T03:46:34.308Z,80.55
2017-11-16T03:49:08.688Z,80.69
2017-11-16T03:51:42.914Z,81.01
2017-11-16T03:54:18.032Z,81.80
2017-11-16T03:56:52.416Z,82.18
2017-11-16T03:59:26.969Z,82.08
2017-11-16T04:02:02.460Z,81.98
2017-11-16T04:04:36.887Z,81.71
2017-11-16T04:07:11.276Z,81.01
2017-11-16T04:09:45.919Z,80.74
2017-11-16T04:12:20.771Z,79.89
2017-11-16T04:14:55.175Z,80.40
2017-11-16T04:17:29.627Z,80.37
2017-11-16T04:22:44.264Z,80.50
2017-11-16T04:25:18.757Z,80.28
2017-11-16T04:27:53.382Z,79.87
2017-11-16T04:30:27.758Z,79.97
2017-11-16T04:33:02.139Z,80.09
2017-11-16T04:35:36.936Z,80.24
2017-11-16T04:38:11.562Z,79.59
2017-11-16T04:40:46.179Z,79.60
2017-11-16T04:43:20.673Z,79.26
2017-11-16T04:45:55.076Z,78.89
2017-11-16T04:48:29.618Z,78.42
2017-11-16T04:51:04.448Z,79.83
2017-11-16T04:53:38.954Z,80.13
2017-11-16T04:56:13.736Z,79.78
2017-11-16T04:58:48.237Z,80.01
2017-11-16T05:01:22.596Z,80.74
2017-11-16T05:03:56.759Z,81.26
2017-11-16T05:06:31.176Z,81.25
2017-11-16T05:09:05.934Z,81.31
2017-11-16T05:11:40.644Z,79.58
2017-11-16T05:14:15.263Z,79.39
2017-11-16T05:16:49.825Z,80.51
2017-11-16T05:19:23.948Z,81.09
2017-11-16T05:21:58.324Z,81.43
2017-11-16T05:24:32.843Z,81.70
2017-11-16T05:27:07.511Z,81.83
2017-11-16T05:29:41.905Z,81.68
2017-11-16T05:32:16.396Z,81.73
2017-11-16T05:34:50.590Z,81.69
2017-11-16T05:37:25.070Z,81.77
2017-11-16T05:39:59.615Z,82.42
2017-11-16T05:42:34.032Z,82.92
2017-11-16T05:45:12.423Z,82.81
2017-11-16T05:47:46.819Z,83.07
2017-11-16T05:50:21.196Z,83.17
2017-11-16T05:52:55.518Z,82.84
2017-11-16T05:55:29.459Z,82.23
2017-11-16T05:58:04.359Z,81.81
2017-11-16T06:00:38.548Z,81.95
2017-11-16T06:03:13.122Z,82.25
2017-11-16T06:05:47.587Z,82.12
2017-11-16T06:08:22.104Z,82.37
2017-11-16T06:10:56.483Z,82.05
2017-11-16T06:13:31.092Z,81.56
2017-11-16T06:16:05.471Z,81.90
2017-11-16T06:18:40.073Z,81.95
2017-11-16T06:21:14.495Z,82.38
2017-11-16T06:23:48.964Z,82.66
2017-11-16T06:26:23.431Z,82.93
2017-11-16T06:28:57.996Z,82.75
2017-11-16T06:31:32.952Z,82.87
2017-11-16T06:34:07.436Z,82.75
2017-11-16T06:36:41.909Z,82.89
2017-11-16T06:39:16.452Z,83.49
2017-11-16T06:41:50.937Z,83.25
2017-11-16T06:44:25.098Z,83.05
2017-11-16T06:46:59.560Z,83.03
2017-11-16T06:49:34.039Z,82.83
2017-11-16T06:52:08.514Z,83.18
2017-11-16T06:54:43.097Z,84.06
2017-11-16T06:57:17.479Z,84.14
2017-11-16T06:59:52.061Z,84.46
2017-11-16T07:02:26.467Z,84.32
2017-11-16T07:05:01.010Z,83.53
2017-11-16T07:07:35.511Z,83.81
2017-11-16T07:10:15.539Z,84.16
2017-11-16T07:12:49.937Z,83.88
2017-11-16T07:15:24.357Z,83.80
2017-11-16T07:17:59.007Z,84.40
2017-11-16T07:20:33.992Z,84.70
2017-11-16T07:23:09.101Z,84.80
2017-11-16T07:25:43.510Z,84.34
2017-11-16T07:28:18.015Z,84.21
2017-11-16T07:30:52.505Z,83.82
2017-11-16T07:33:27.068Z,83.41
2017-11-16T07:36:01.528Z,82.53
2017-11-16T07:38:36.148Z,83.72
2017-11-16T07:41:10.225Z,83.62
2017-11-16T07:43:44.711Z,83.58
2017-11-16T07:46:18.936Z,83.97
2017-11-16T07:48:53.140Z,83.84
2017-11-16T07:51:27.397Z,83.61
2017-11-16T07:54:02.332Z,82.57
2017-11-16T07:56:37.324Z,83.16
2017-11-16T07:59:11.556Z,82.98
2017-11-16T08:01:46.218Z,82.71
2017-11-16T08:04:20.657Z,82.81
2017-11-16T08:06:55.729Z,83.04
2017-11-16T08:09:30.421Z,83.25
2017-11-16T08:12:04.275Z,83.41
2017-11-16T08:14:38.856Z,83.18
2017-11-16T08:17:13.233Z,82.67
2017-11-16T08:19:47.871Z,82.60
2017-11-16T08:22:22.337Z,82.40
2017-11-16T08:24:56.880Z,82.95
2017-11-16T08:27:31.259Z,82.95
2017-11-16T08:30:12.020Z,82.07
2017-11-16T08:32:46.407Z,81.93
2017-11-16T08:35:20.794Z,82.00
2017-11-16T08:37:55.353Z,82.16
2017-11-16T08:40:29.835Z,81.80
2017-11-16T08:43:04.339Z,82.43
2017-11-16T08:45:38.786Z,82.00
2017-11-16T08:48:13.048Z,81.42
2017-11-16T08:50:47.167Z,81.23
2017-11-16T08:53:21.407Z,81.06
2017-11-16T08:55:55.899Z,80.80
2017-11-16T08:58:30.127Z,80.68
2017-11-16T09:01:05.068Z,81.30
2017-11-16T09:03:39.139Z,80.95
2017-11-16T09:06:13.562Z,80.26
2017-11-16T09:08:47.739Z,79.73
2017-11-16T09:11:22.106Z,80.32
2017-11-16T09:13:56.775Z,80.13
2017-11-16T09:16:31.035Z,80.92
2017-11-16T09:19:05.303Z,80.51
2017-11-16T09:21:39.476Z,80.11
2017-11-16T09:24:13.688Z,79.79
2017-11-16T09:26:48.067Z,79.09
2017-11-16T09:29:23.113Z,78.77
2017-11-16T09:31:57.381Z,78.72
2017-11-16T09:34:31.997Z,77.89
2017-11-16T09:37:06.465Z,77.74
2017-11-16T09:39:40.892Z,76.77
2017-11-16T09:42:15.395Z,76.78
2017-11-16T09:44:49.937Z,76.53
2017-11-16T09:47:24.004Z,77.24
2017-11-16T09:49:58.427Z,76.47
2017-11-16T09:52:32.887Z,75.97
2017-11-16T09:55:15.310Z,75.61
2017-11-16T09:57:49.901Z,75.78
2017-11-16T10:00:24.312Z,75.38
2017-11-16T10:02:58.692Z,75.73
2017-11-16T10:05:33.486Z,76.06
2017-11-16T10:08:08.021Z,75.17
2017-11-16T10:10:42.428Z,74.27
2017-11-16T10:13:16.979Z,74.09
2017-11-16T10:15:51.755Z,73.18
2017-11-16T10:18:26.393Z,73.33
2017-11-16T10:21:00.783Z,73.40
2017-11-16T10:23:35.161Z,72.77
2017-11-16T10:26:09.880Z,72.74
2017-11-16T10:28:44.435Z,72.45
2017-11-16T10:31:18.841Z,72.50
2017-11-16T10:33:53.330Z,72.05
2017-11-16T10:36:27.900Z,72.33
2017-11-16T10:39:02.745Z,73.04
2017-11-16T10:41:37.130Z,72.60
2017-11-16T10:44:11.581Z,71.79
2017-11-16T10:46:45.784Z,72.37
2017-11-16T10:49:20.303Z,72.17
2017-11-16T10:51:54.359Z,72.50
2017-11-16T10:54:28.819Z,72.55
2017-11-16T10:57:03.392Z,72.70
2017-11-16T10:59:38.307Z,71.49
2017-11-16T11:02:12.836Z,69.49
2017-11-16T11:04:47.056Z,68.79
2017-11-16T11:07:22.996Z,67.58
2017-11-16T11:09:57.488Z,68.19
2017-11-16T11:12:32.142Z,67.42
2017-11-16T11:15:14.220Z,66.56
2017-11-16T11:17:48.827Z,67.18
2017-11-16T11:20:23.448Z,68.45
2017-11-16T11:22:58.011Z,69.11
2017-11-16T11:25:32.507Z,70.20
2017-11-16T11:28:07.023Z,70.32
2017-11-16T11:30:41.795Z,70.36
2017-11-16T11:33:16.281Z,69.98
2017-11-16T11:35:50.759Z,70.10
2017-11-16T11:38:25.955Z,70.11
2017-11-16T11:41:00.492Z,70.05
2017-11-16T11:43:35.011Z,70.77
2017-11-16T11:46:09.424Z,71.06
2017-11-16T11:48:43.963Z,70.78
2017-11-16T11:51:18.411Z,70.86
2017-11-16T11:53:52.935Z,71.45
2017-11-16T11:56:27.296Z,71.09
2017-11-16T11:59:02.635Z,71.03
2017-11-16T12:01:37.980Z,70.44
2017-11-16T12:04:12.442Z,70.05
2017-11-16T12:06:46.720Z,70.28
2017-11-16T12:09:21.300Z,69.77
2017-11-16T12:11:55.716Z,69.80
2017-11-16T12:14:30.266Z,70.12
2017-11-16T12:17:04.795Z,69.56
2017-11-16T12:19:39.526Z,68.25
2017-11-16T12:22:14.287Z,69.26
2017-11-16T12:24:48.784Z,69.39
2017-11-16T12:27:23.185Z,68.84
2017-11-16T12:29:57.266Z,68.20
2017-11-16T12:32:31.500Z,67.59
2017-11-16T12:35:05.667Z,67.45
2017-11-16T12:37:40.166Z,67.65
2017-11-16T12:40:14.540Z,69.11
2017-11-16T12:42:49.056Z,69.23
2017-11-16T12:45:23.639Z,69.08
2017-11-16T12:47:57.828Z,68.47
2017-11-16T12:50:32.366Z,68.67
2017-11-16T12:53:07.900Z,69.65
2017-11-16T12:55:42.456Z,70.13
2017-11-16T12:58:16.722Z,69.99
2017-11-16T13:00:51.116Z,70.06
2017-11-16T13:03:26.607Z,69.89
2017-11-16T13:06:01.950Z,70.61
2017-11-16T13:08:36.483Z,70.53
2017-11-16T13:11:10.904Z,71.19
2017-11-16T13:13:45.847Z,71.07
2017-11-16T13:16:20.444Z,71.70
2017-11-16T13:18:54.868Z,71.07
2017-11-16T13:21:29.720Z,71.24
2017-11-16T13:24:04.213Z,71.69
2017-11-16T13:26:38.701Z,71.70
2017-11-16T13:29:13.221Z,71.85
2017-11-16T13:31:48.019Z,71.75
2017-11-16T13:34:22.467Z,71.69
2017-11-16T13:36:56.975Z,72.60
2017-11-16T13:39:31.632Z,72.81
2017-11-16T13:42:06.056Z,72.88
2017-11-16T13:44:40.548Z,72.53
2017-11-16T13:47:14.976Z,72.82
2017-11-16T13:49:49.591Z,72.78
2017-11-16T13:52:24.024Z,73.00
2017-11-16T13:54:58.482Z,72.63
2017-11-16T13:57:32.868Z,72.64
2017-11-16T14:00:07.268Z,72.80
2017-11-16T14:02:41.795Z,72.68
2017-11-16T14:05:16.524Z,73.29
2017-11-16T14:07:51.019Z,73.38
2017-11-16T14:10:25.611Z,72.99
2017-11-16T14:13:00.126Z,73.42
2017-11-16T14:15:34.546Z,73.85
2017-11-16T14:18:09.036Z,73.30
2017-11-16T14:20:43.435Z,73.46
2017-11-16T14:23:17.969Z,73.34
2017-11-16T14:25:52.358Z,73.38
2017-11-16T14:28:26.863Z,73.84
2017-11-16T14:31:01.239Z,74.15
2017-11-16T14:33:35.899Z,73.75
2017-11-16T14:36:10.262Z,73.64
2017-11-16T14:38:44.792Z,73.72
2017-11-16T14:41:19.179Z,73.62
2017-11-16T14:43:53.680Z,73.50
2017-11-16T14:46:28.187Z,73.83
2017-11-16T14:49:02.976Z,73.95
2017-11-16T14:51:37.351Z,73.88
2017-11-16T14:54:11.879Z,73.66
2017-11-16T14:56:46.579Z,73.57
2017-11-16T14:59:21.165Z,73.72
2017-11-16T15:01:55.894Z,73.65
2017-11-16T15:04:29.883Z,74.15
2017-11-16T15:07:04.264Z,74.02
2017-11-16T15:09:38.841Z,74.07
2017-11-16T15:12:13.248Z,74.06
2017-11-16T15:14:47.748Z,74.11
2017-11-16T15:17:22.534Z,74.36
2017-11-16T15:19:56.996Z,74.15
2017-11-16T15:22:31.372Z,74.37
2017-11-16T15:25:06.114Z,74.57
2017-11-16T15:27:41.420Z,74.49
2017-11-16T15:30:16.515Z,74.20
2017-11-16T15:32:50.933Z,74.47
2017-11-16T15:35:25.692Z,73.54
2017-11-16T15:38:00.320Z,73.54
2017-11-16T15:40:34.751Z,73.86
2017-11-16T15:43:09.344Z,74.03
2017-11-16T15:45:43.772Z,73.56
2017-11-16T15:48:18.346Z,73.28
2017-11-16T15:50:52.534Z,72.76
2017-11-16T15:53:27.031Z,72.96
2017-11-16T15:56:01.444Z,71.98
2017-11-16T15:58:35.952Z,71.93
2017-11-16T16:01:11.139Z,72.55
2017-11-16T16:03:45.631Z,72.78
2017-11-16T16:06:20.019Z,73.47
2017-11-16T16:08:54.474Z,73.35
2017-11-16T16:11:28.968Z,73.62
2017-11-16T16:14:03.484Z,73.60
2017-11-16T16:16:38.704Z,72.83
2017-11-16T16:19:13.261Z,73.02
2017-11-16T16:21:48.208Z,73.20
2017-11-16T16:24:22.691Z,73.59
2017-11-16T16:26:57.143Z,73.73
2017-11-16T16:29:31.983Z,73.99
2017-11-16T16:32:06.664Z,74.21
2017-11-16T16:34:41.364Z,74.33
2017-11-16T16:37:15.808Z,74.52
2017-11-16T16:39:50.400Z,75.05
2017-11-16T16:42:24.853Z,75.09
2017-11-16T16:44:59.477Z,74.53
2017-11-16T16:47:34.110Z,75.01
2017-11-16T16:50:08.850Z,75.04
2017-11-16T16:52:43.307Z,74.95
2017-11-16T16:55:17.719Z,74.93
2017-11-16T16:57:52.333Z,75.04
2017-11-16T17:00:26.986Z,75.21
2017-11-16T17:03:01.587Z,75.22
2017-11-16T17:05:36.008Z,74.94
2017-11-16T17:08:10.524Z,74.96
2017-11-16T17:10:44.972Z,74.67
2017-11-16T17:13:20.190Z,74.91
2017-11-16T17:15:54.576Z,74.13
2017-11-16T17:18:29.205Z,73.86
2017-11-16T17:21:03.780Z,74.04
2017-11-16T17:23:38.455Z,73.68
2017-11-16T17:26:12.808Z,74.05
2017-11-16T17:28:47.304Z,74.21
2017-11-16T17:31:21.951Z,74.55
2017-11-16T17:33:56.524Z,73.71
2017-11-16T17:36:33.019Z,74.50
2017-11-16T17:39:07.380Z,74.53
2017-11-16T17:41:41.933Z,74.77
2017-11-16T17:44:16.459Z,75.08
2017-11-16T17:46:50.811Z,74.68
2017-11-16T17:49:25.417Z,74.64
2017-11-16T17:52:00.067Z,74.52
2017-11-16T17:54:35.058Z,74.52
2017-11-16T17:57:09.515Z,74.85
2017-11-16T17:59:44.043Z,74.70
2017-11-16T18:02:18.426Z,75.54
2017-11-16T18:04:53.143Z,75.69
2017-11-16T18:07:27.531Z,74.93
2017-11-16T18:10:02.060Z,74.91
2017-11-16T18:12:38.005Z,75.11
2017-11-16T18:15:12.595Z,75.59
2017-11-16T18:17:47.205Z,76.12
2017-11-16T18:20:21.708Z,75.87
2017-11-16T18:22:56.275Z,75.72
2017-11-16T18:25:30.800Z,75.87
2017-11-16T18:28:05.305Z,76.11
2017-11-16T18:30:40.411Z,76.06
2017-11-16T18:33:15.059Z,76.50
2017-11-16T18:35:49.784Z,76.60
2017-11-16T18:38:24.349Z,76.55
2017-11-16T18:40:58.809Z,77.00
2017-11-16T18:43:33.740Z,76.86
2017-11-16T18:46:08.128Z,77.08
2017-11-16T18:48:42.768Z,76.82
2017-11-16T18:51:17.155Z,77.53
2017-11-16T18:53:51.542Z,77.19
2017-11-16T18:56:26.159Z,77.02
2017-11-16T18:59:00.562Z,77.56
2017-11-16T19:01:34.945Z,77.77
2017-11-16T19:04:09.893Z,78.16
2017-11-16T19:06:44.308Z,77.86
2017-11-16T19:09:18.836Z,77.54
2017-11-16T19:11:53.177Z,77.34
2017-11-16T19:14:27.750Z,77.69
2017-11-16T19:17:02.496Z,77.67
2017-11-16T19:19:36.944Z,77.48
2017-11-16T19:22:11.376Z,77.52
2017-11-16T19:24:46.019Z,77.36
2017-11-16T19:27:21.385Z,78.03
2017-11-16T19:29:56.649Z,77.65
2017-11-16T19:32:31.552Z,77.53
2017-11-16T19:35:15.388Z,78.08
2017-11-16T19:37:50.514Z,78.37
2017-11-16T19:40:25.272Z,78.10
2017-11-16T19:43:00.250Z,77.99
2017-11-16T19:45:34.995Z,78.34
2017-11-16T19:48:10.191Z,77.59
2017-11-16T19:50:44.753Z,77.70
2017-11-16T19:53:19.691Z,78.37
2017-11-16T19:55:54.051Z,78.16
2017-11-16T19:58:29.069Z,78.12
2017-11-16T20:01:04.953Z,78.14
2017-11-16T20:03:40.655Z,78.22
2017-11-16T20:09:00.375Z,77.55
2017-11-16T20:11:34.776Z,77.31
2017-11-16T20:14:09.424Z,77.07
2017-11-16T20:16:43.884Z,77.37
2017-11-16T20:19:18.319Z,77.28
2017-11-16T20:21:52.997Z,77.06
2017-11-16T20:24:31.744Z,77.09
2017-11-16T20:27:06.257Z,76.91
2017-11-16T20:29:41.015Z,76.84
2017-11-16T20:32:15.876Z,76.18
2017-11-16T20:34:50.321Z,75.40
2017-11-16T20:37:31.684Z,75.79
2017-11-16T20:40:17.803Z,75.66
2017-11-16T20:46:13.580Z,74.90
2017-11-16T20:48:53.539Z,74.94
2017-11-16T20:51:33.435Z,74.83
2017-11-16T20:54:11.244Z,74.38
2017-11-16T20:56:45.479Z,74.04
2017-11-16T20:59:19.812Z,74.33
2017-11-16T21:01:54.270Z,74.05
2017-11-16T21:04:28.986Z,73.94
2017-11-16T21:07:04.551Z,74.44
2017-11-16T21:09:40.188Z,74.02
2017-11-16T21:12:22.141Z,72.82
2017-11-16T21:14:56.683Z,74.18
2017-11-16T21:17:31.753Z,75.47
2017-11-16T21:20:15.380Z,76.20
2017-11-16T21:22:50.037Z,76.79
2017-11-16T21:25:24.575Z,76.71
2017-11-16T21:27:58.895Z,76.77
2017-11-16T21:30:33.391Z,76.17
2017-11-16T21:33:07.903Z,76.04
2017-11-16T21:35:43.364Z,75.92
2017-11-16T21:38:17.837Z,76.23
2017-11-16T21:40:52.204Z,76.75
2017-11-16T21:43:26.671Z,76.83
2017-11-16T21:46:01.369Z,76.45
2017-11-16T21:48:35.765Z,76.36
2017-11-16T21:51:10.248Z,76.38
2017-11-16T21:53:44.731Z,76.19
2017-11-16T21:56:19.836Z,75.50
2017-11-16T21:58:54.019Z,75.68
2017-11-16T22:01:28.483Z,75.73
2017-11-16T22:04:02.892Z,75.81
2017-11-16T22:06:37.396Z,75.79
2017-11-16T22:09:11.769Z,75.72
2017-11-16T22:11:46.151Z,76.03
2017-11-16T22:14:20.631Z,77.19
2017-11-16T22:16:55.052Z,77.03
2017-11-16T22:19:29.580Z,76.99
2017-11-16T22:22:03.715Z,77.77
2017-11-16T22:24:38.195Z,77.73
2017-11-16T22:27:12.630Z,78.40
2017-11-16T22:29:47.019Z,78.68
2017-11-16T22:32:21.675Z,78.95
2017-11-16T22:34:56.282Z,79.68
2017-11-16T22:37:30.642Z,79.78
2017-11-16T22:40:14.080Z,79.61
2017-11-16T22:42:48.673Z,79.95
2017-11-16T22:45:23.108Z,80.30
2017-11-16T22:47:57.911Z,80.22
2017-11-16T22:50:32.335Z,80.20
2017-11-16T22:53:06.876Z,80.36
2017-11-16T22:55:41.335Z,80.38
2017-11-16T22:58:15.935Z,80.74
2017-11-16T23:00:50.414Z,80.82
2017-11-16T23:03:24.799Z,80.89
2017-11-16T23:05:59.231Z,81.22
2017-11-16T23:08:33.772Z,81.25
2017-11-16T23:11:08.182Z,81.50
2017-11-16T23:13:42.556Z,81.71
2017-11-16T23:16:17.067Z,81.46
2017-11-16T23:18:51.563Z,81.65
2017-11-16T23:21:25.943Z,81.80
2017-11-16T23:24:00.524Z,82.02
2017-11-16T23:26:34.964Z,82.13
2017-11-16T23:29:09.492Z,82.32
2017-11-16T23:31:43.931Z,82.70
2017-11-16T23:34:18.416Z,82.93
2017-11-16T23:36:53.660Z,83.28
2017-11-16T23:39:28.214Z,83.25
2017-11-16T23:42:02.671Z,83.21
2017-11-16T23:44:36.691Z,83.61
2017-11-16T23:47:11.104Z,83.39
2017-11-16T23:49:45.723Z,83.32
2017-11-16T23:52:20.054Z,83.23
2017-11-16T23:54:56.568Z,83.35
2017-11-16T23:57:31.165Z,83.56
